Buoy 53593

sailwx.info

Track history (hours):
 
Tides and Currents Weather Stations Pressure Air Temp Water Temp Dewpoint Dewpoint Depression Visibility Wind Speed Wind Dir Waves Ship Positions

Drifting buoy 53593

Last reported at 2017-Jun-26 22:00 UTC. Time now 2017-Jun-27 00:10 UTC.
Position S 25°21' E 091°37'.

Barometer 1022.9 mb
Water temperature 21.0 ° C

Date/timePositionNaut miles runAvg speedWind from/ knotsBaromVisibWave heightAir tempDewpointWater temp
2017-Jun-26 22:00S 25°21' E 091°37'0 0.0 1022.9 21.0
2017-Jun-26 21:00S 25°21' E 091°37'0 0.0 1023.2 21.0
2017-Jun-26 19:00S 25°21' E 091°37'0 0.0 1023.8 21.0
2017-Jun-26 18:00S 25°21' E 091°37'1 0.6 1023.8 21.0
2017-Jun-26 16:00S 25°20' E 091°38'1 0.4 1024.5 21.0
2017-Jun-26 13:00S 25°20' E 091°40'0 0.0 1023.8 21.0
2017-Jun-26 12:00S 25°20' E 091°40'2 1.6 1023.6 21.0
2017-Jun-26 11:00S 25°20' E 091°41'0 0.0 1023.2 21.0
2017-Jun-26 10:00S 25°20' E 091°41'3 3.3 1023.2 21.1
2017-Jun-26 09:00S 25°20' E 091°45'0 0.0 1023.0 21.1
2017-Jun-26 08:00S 25°20' E 091°45'0 0.0 1023.2 21.1
2017-Jun-26 07:00S 25°20' E 091°45'0 0.0 1023.5 21.1
2017-Jun-26 04:00S 25°20' E 091°45'0 0.0 1024.6 21.0
2017-Jun-26 03:00S 25°20' E 091°45'1 1.3 1024.6 21.0
2017-Jun-26 02:00S 25°22' E 091°46'0 0.0 1024.0 21.0
2017-Jun-26 01:00S 25°22' E 091°46'1 1.2 1023.5 21.0
2017-Jun-26 00:00S 25°21' E 091°47'0 0.0 1023.0 21.0
2017-Jun-25 23:00S 25°21' E 091°47'1 0.3 1022.7 21.0
2017-Jun-25 20:00S 25°22' E 091°47'3 1.4 1023.0 21.1
2017-Jun-25 18:00S 25°22' E 091°50'1 0.3 1023.6 21.1
2017-Jun-25 14:00S 25°22' E 091°52'1 0.8 1023.6 21.1
2017-Jun-25 13:00S 25°22' E 091°51'1 1.1 1023.3 21.0
2017-Jun-25 12:00S 25°22' E 091°52'0 0.0 1023.0 21.0
2017-Jun-25 11:00S 25°22' E 091°52'1 0.8 1022.3 21.0
2017-Jun-25 10:00S 25°21' E 091°53'1 1.2 1022.2 21.0
2017-Jun-25 09:00S 25°20' E 091°54'3 3.2 1022.0 21.0
2017-Jun-25 08:00S 25°18' E 091°56'1 0.2 1022.2 21.0
2017-Jun-25 03:00S 25°17' E 091°58'1 0.4 1023.8 21.0
2017-Jun-25 01:00S 25°18' E 091°57'2 2.1 1022.9 21.0
2017-Jun-25 00:00S 25°16' E 091°58'1 0.4 1022.4 21.1
2017-Jun-24 22:00S 25°16' E 091°58'3 0.4 1021.7 21.1
2017-Jun-24 16:00S 25°13' E 091°59'0 0.0 1023.9 21.1
2017-Jun-24 15:00S 25°13' E 091°59'1 0.8 1024.0 21.2
2017-Jun-24 14:00S 25°13' E 091°58'0 0.0 1023.7 21.2
2017-Jun-24 13:00S 25°13' E 091°58'0 0.0 1023.4 21.2
2017-Jun-24 12:00S 25°13' E 091°58'1 0.8 1022.8 21.2
2017-Jun-24 11:00S 25°12' E 091°58'1 0.8 1022.2 21.2
2017-Jun-24 10:00S 25°11' E 091°58'1 0.5 1021.8 21.2
2017-Jun-24 09:00S 25°11' E 091°58'0 0.0 1021.7 21.2
2017-Jun-24 08:00S 25°11' E 091°58'3 0.4 1021.5 21.2
2017-Jun-24 01:00S 25°09' E 091°59'1 0.5 1023.4 21.1
2017-Jun-24 00:00S 25°09' E 092°00'1 1.1 1023.3 21.1
2017-Jun-23 23:00S 25°09' E 091°59'0 0.0 1022.9 21.1
2017-Jun-23 22:00S 25°09' E 091°59'0 0.0 1023.1 21.1
2017-Jun-23 20:00S 25°09' E 091°59'0 0.0 1023.6 21.1
2017-Jun-23 16:00S 25°09' E 091°59'1 1.2 1024.8 21.1
2017-Jun-23 15:00S 25°08' E 092°00'1 0.7 1025.1 21.2
2017-Jun-23 13:00S 25°07' E 091°59'0 0.0 1025.0 21.2
2017-Jun-23 12:00S 25°07' E 091°59'1 0.5 1024.1 21.2
2017-Jun-23 11:00S 25°07' E 092°00'0 0.0 1024.1 21.2
2017-Jun-23 10:00S 25°07' E 092°00'1 0.8 1023.6 21.2
2017-Jun-23 09:00S 25°07' E 091°59'0 0.0 1023.6 21.2
2017-Jun-23 08:00S 25°07' E 091°59'2 1.9 1024.2 21.2
2017-Jun-23 07:00S 25°05' E 091°59'1 0.1 1024.3 21.2
2017-Jun-23 03:00S 25°05' E 091°59'0 0.0 1026.7 21.2
2017-Jun-23 02:00S 25°05' E 091°59'0 0.0 1026.4 21.2
2017-Jun-23 01:00S 25°05' E 091°59'1 0.8 1026.2 21.2
2017-Jun-23 00:00S 25°04' E 092°00'1 0.5 1026.1 21.2
2017-Jun-22 23:00S 25°04' E 092°01'1 0.5 1025.2 21.2
2017-Jun-22 21:00S 25°04' E 091°59'1 0.6 1025.8 21.2
2017-Jun-22 20:00S 25°04' E 091°59'1 0.1 1026.0 21.2
2017-Jun-22 15:00S 25°03' E 091°59'0 0.0 1027.8 21.3
2017-Jun-22 14:00S 25°03' E 091°59'1 0.8 1028.4 21.3
2017-Jun-22 13:00S 25°02' E 091°59'1 0.6 1028.3 21.3
2017-Jun-22 12:00S 25°03' E 091°59'1 0.3 1027.8 21.3
2017-Jun-22 10:00S 25°02' E 091°59'1 1.2 1027.4 21.3
2017-Jun-22 09:00S 25°02' E 091°58'2 0.2 1027.4 21.3
2017-Jun-22 01:00S 25°00' E 091°57'2 1.1 1028.1 21.3
2017-Jun-21 23:00S 24°59' E 091°59'1 0.4 1025.6 21.3
2017-Jun-21 21:00S 24°59' E 091°59'0 0.0 1025.9 21.3
2017-Jun-21 20:00S 24°59' E 091°59'1 0.2 1025.9 21.3
2017-Jun-21 15:00S 24°59' E 092°00'0 0.0 1027.4 21.4
2017-Jun-21 14:00S 24°59' E 092°00'1 0.5 1027.0 21.4
2017-Jun-21 13:00S 24°59' E 091°59'1 1.2 1026.7 21.4
2017-Jun-21 12:00S 24°58' E 092°01'0 0.0 1026.3 21.4
2017-Jun-21 11:00S 24°58' E 092°01'0 0.0 1025.7 21.4
2017-Jun-21 10:00S 24°58' E 092°01'1 0.6 1025.6 21.4
2017-Jun-21 09:00S 24°58' E 092°01'2 0.4 1025.4 21.4
2017-Jun-21 04:00S 24°56' E 092°02'0 0.0 1026.7 21.4
2017-Jun-21 03:00S 24°56' E 092°02'2 0.8 1026.5 21.3
2017-Jun-21 01:00S 24°56' E 092°04'0 0.0 1025.7 21.3
2017-Jun-21 00:00S 24°56' E 092°04'1 1.1 1024.9 21.3
2017-Jun-20 23:00S 24°56' E 092°05'0 0.0 1024.4 21.3
2017-Jun-20 22:00S 24°56' E 092°05'1 0.5 1024.3 21.3
2017-Jun-20 21:00S 24°56' E 092°05'0 0.0 1024.5 21.3
2017-Jun-20 20:00S 24°56' E 092°05'1 0.1 1024.5 21.3
2017-Jun-20 16:00S 24°56' E 092°06'1 0.6 1025.2 21.3
2017-Jun-20 14:00S 24°56' E 092°07'0 0.0
2017-Jun-20 13:00S 24°56' E 092°07'1 1.2 1024.8 21.3
2017-Jun-20 12:00S 24°58' E 092°07'1 0.3 1024.2 21.3
2017-Jun-20 10:00S 24°57' E 092°07'1 0.8 1023.2 21.4
2017-Jun-20 09:00S 24°58' E 092°08'0 0.0 1023.0 21.4
2017-Jun-20 08:00S 24°58' E 092°08'1 0.1 1022.7 21.4
2017-Jun-20 03:00S 24°58' E 092°08'0 0.0 1024.6 21.3
2017-Jun-20 02:00S 24°58' E 092°08'1 0.5 1024.0 21.3
2017-Jun-20 01:00S 24°58' E 092°09'0 0.0 1023.6 21.3
2017-Jun-20 00:00S 24°58' E 092°09'1 1.2 1022.9 21.3
2017-Jun-19 23:00S 24°58' E 092°10'1 0.6 1022.4 21.3
2017-Jun-19 22:00S 24°58' E 092°10'1 0.8 1022.5 21.3
2017-Jun-19 21:00S 24°58' E 092°11'1 0.2 1022.5 21.3
2017-Jun-19 16:00S 24°58' E 092°11'0 0.0 1023.2 21.3
2017-Jun-19 15:00S 24°58' E 092°11'1 1.2 1023.6 21.3
2017-Jun-19 14:00S 24°57' E 092°13'1 0.3 1023.4 21.3
2017-Jun-19 12:00S 24°56' E 092°13'1 0.6 1022.5 21.3
2017-Jun-19 10:00S 24°57' E 092°14'0 0.0 1021.8 21.4
2017-Jun-19 09:00S 24°57' E 092°14'2 0.2 1021.5 21.4
2017-Jun-19 02:00S 24°56' E 092°16'1 0.8 1022.9 21.4
2017-Jun-19 01:00S 24°57' E 092°15'1 1.2 1022.3 21.4
2017-Jun-19 00:00S 24°56' E 092°15'0 0.0 1021.6 21.4
2017-Jun-18 23:00S 24°56' E 092°15'0 0.0 1021.0 21.4
2017-Jun-18 22:00S 24°56' E 092°15'1 0.3 1020.7 21.5
2017-Jun-18 18:00S 24°55' E 092°16'1 0.3 1021.6 21.6
2017-Jun-18 16:00S 24°54' E 092°16'1 0.5 1022.0 21.6
2017-Jun-18 15:00S 24°54' E 092°16'1 0.2 1021.8 21.6
2017-Jun-18 12:00S 24°53' E 092°16'1 0.5 1020.7 21.6
2017-Jun-18 11:00S 24°53' E 092°17'0 0.0 1020.3 21.6
2017-Jun-18 10:00S 24°53' E 092°17'1 0.5 1020.0 21.6
2017-Jun-18 09:00S 24°53' E 092°16'0 0.0 1019.9 21.6
2017-Jun-18 07:00S 24°53' E 092°16'1 0.3 1020.0 21.6
2017-Jun-18 03:00S 24°52' E 092°16'0 0.0 1021.6 21.6
2017-Jun-18 02:00S 24°52' E 092°16'0 0.0 1021.6 21.6
2017-Jun-18 00:00S 24°52' E 092°16'0 0.0 1020.7 21.6
2017-Jun-17 23:00S 24°52' E 092°16'0 0.0 1020.4 21.6
2017-Jun-17 21:00S 24°52' E 092°16'1 0.3 1020.4 21.6
2017-Jun-17 19:00S 24°52' E 092°16'1 0.6 1021.3 21.6
2017-Jun-17 18:00S 24°52' E 092°16'1 0.4 1021.6 21.6
2017-Jun-17 16:00S 24°52' E 092°17'1 0.6 1022.2 21.6
2017-Jun-17 15:00S 24°52' E 092°17'0 0.0 1022.1 21.6
2017-Jun-17 14:00S 24°52' E 092°17'0 0.0 1022.0 21.6
2017-Jun-17 13:00S 24°52' E 092°17'0 0.0 1021.8 21.6
2017-Jun-17 12:00S 24°52' E 092°17'0 0.0 1021.2 21.7
2017-Jun-17 11:00S 24°52' E 092°17'1 1.2 1020.9 21.7
2017-Jun-17 10:00S 24°53' E 092°18'1 1.2 1020.7 21.7
2017-Jun-17 09:00S 24°52' E 092°17'0 0.0 1020.7 21.7
2017-Jun-17 08:00S 24°52' E 092°17'0 0.0 1021.0 21.7
2017-Jun-17 07:00S 24°52' E 092°17'2 0.6 1021.5 21.7
2017-Jun-17 04:00S 24°52' E 092°15'1 0.8 1023.6 21.6
2017-Jun-17 03:00S 24°51' E 092°16'1 0.3 1023.4 21.6
2017-Jun-17 01:00S 24°51' E 092°15'1 0.8 1022.3 21.6
2017-Jun-17 00:00S 24°50' E 092°16'   1022.3 21.6
Track history (hours):
 
Tides and Currents Weather Stations Pressure Air Temp Water Temp Dewpoint Dewpoint Depression Visibility Wind Speed Wind Dir Waves Ship Positions

Drifting buoy 53593

Last reported at 2017-Jun-26 22:00 UTC. Time now 2017-Jun-27 00:10 UTC.
Position S 25°21' E 091°37'.

Barometer 1022.9 mb
Water temperature 21.0 ° C

Date/timePositionNaut miles runAvg speedWind from/ knotsBaromVisibWave heightAir tempDewpointWater temp
2017-Jun-26 22:00S 25°21' E 091°37'0 0.0 1022.9 21.0
2017-Jun-26 21:00S 25°21' E 091°37'0 0.0 1023.2 21.0
2017-Jun-26 19:00S 25°21' E 091°37'0 0.0 1023.8 21.0
2017-Jun-26 18:00S 25°21' E 091°37'1 0.6 1023.8 21.0
2017-Jun-26 16:00S 25°20' E 091°38'1 0.4 1024.5 21.0
2017-Jun-26 13:00S 25°20' E 091°40'0 0.0 1023.8 21.0
2017-Jun-26 12:00S 25°20' E 091°40'2 1.6 1023.6 21.0
2017-Jun-26 11:00S 25°20' E 091°41'0 0.0 1023.2 21.0
2017-Jun-26 10:00S 25°20' E 091°41'3 3.3 1023.2 21.1
2017-Jun-26 09:00S 25°20' E 091°45'0 0.0 1023.0 21.1
2017-Jun-26 08:00S 25°20' E 091°45'0 0.0 1023.2 21.1
2017-Jun-26 07:00S 25°20' E 091°45'0 0.0 1023.5 21.1
2017-Jun-26 04:00S 25°20' E 091°45'0 0.0 1024.6 21.0
2017-Jun-26 03:00S 25°20' E 091°45'1 1.3 1024.6 21.0
2017-Jun-26 02:00S 25°22' E 091°46'0 0.0 1024.0 21.0
2017-Jun-26 01:00S 25°22' E 091°46'1 1.2 1023.5 21.0
2017-Jun-26 00:00S 25°21' E 091°47'0 0.0 1023.0 21.0
2017-Jun-25 23:00S 25°21' E 091°47'1 0.3 1022.7 21.0
2017-Jun-25 20:00S 25°22' E 091°47'3 1.4 1023.0 21.1
2017-Jun-25 18:00S 25°22' E 091°50'1 0.3 1023.6 21.1
2017-Jun-25 14:00S 25°22' E 091°52'1 0.8 1023.6 21.1
2017-Jun-25 13:00S 25°22' E 091°51'1 1.1 1023.3 21.0
2017-Jun-25 12:00S 25°22' E 091°52'0 0.0 1023.0 21.0
2017-Jun-25 11:00S 25°22' E 091°52'1 0.8 1022.3 21.0
2017-Jun-25 10:00S 25°21' E 091°53'1 1.2 1022.2 21.0
2017-Jun-25 09:00S 25°20' E 091°54'3 3.2 1022.0 21.0
2017-Jun-25 08:00S 25°18' E 091°56'1 0.2 1022.2 21.0
2017-Jun-25 03:00S 25°17' E 091°58'1 0.4 1023.8 21.0
2017-Jun-25 01:00S 25°18' E 091°57'2 2.1 1022.9 21.0
2017-Jun-25 00:00S 25°16' E 091°58'1 0.4 1022.4 21.1
2017-Jun-24 22:00S 25°16' E 091°58'3 0.4 1021.7 21.1
2017-Jun-24 16:00S 25°13' E 091°59'0 0.0 1023.9 21.1
2017-Jun-24 15:00S 25°13' E 091°59'1 0.8 1024.0 21.2
2017-Jun-24 14:00S 25°13' E 091°58'0 0.0 1023.7 21.2
2017-Jun-24 13:00S 25°13' E 091°58'0 0.0 1023.4 21.2
2017-Jun-24 12:00S 25°13' E 091°58'1 0.8 1022.8 21.2
2017-Jun-24 11:00S 25°12' E 091°58'1 0.8 1022.2 21.2
2017-Jun-24 10:00S 25°11' E 091°58'1 0.5 1021.8 21.2
2017-Jun-24 09:00S 25°11' E 091°58'0 0.0 1021.7 21.2
2017-Jun-24 08:00S 25°11' E 091°58'3 0.4 1021.5 21.2
2017-Jun-24 01:00S 25°09' E 091°59'1 0.5 1023.4 21.1
2017-Jun-24 00:00S 25°09' E 092°00'1 1.1 1023.3 21.1
2017-Jun-23 23:00S 25°09' E 091°59'0 0.0 1022.9 21.1
2017-Jun-23 22:00S 25°09' E 091°59'0 0.0 1023.1 21.1
2017-Jun-23 20:00S 25°09' E 091°59'0 0.0 1023.6 21.1
2017-Jun-23 16:00S 25°09' E 091°59'1 1.2 1024.8 21.1
2017-Jun-23 15:00S 25°08' E 092°00'1 0.7 1025.1 21.2
2017-Jun-23 13:00S 25°07' E 091°59'0 0.0 1025.0 21.2
2017-Jun-23 12:00S 25°07' E 091°59'1 0.5 1024.1 21.2
2017-Jun-23 11:00S 25°07' E 092°00'0 0.0 1024.1 21.2
2017-Jun-23 10:00S 25°07' E 092°00'1 0.8 1023.6 21.2
2017-Jun-23 09:00S 25°07' E 091°59'0 0.0 1023.6 21.2
2017-Jun-23 08:00S 25°07' E 091°59'2 1.9 1024.2 21.2
2017-Jun-23 07:00S 25°05' E 091°59'1 0.1 1024.3 21.2
2017-Jun-23 03:00S 25°05' E 091°59'0 0.0 1026.7 21.2
2017-Jun-23 02:00S 25°05' E 091°59'0 0.0 1026.4 21.2
2017-Jun-23 01:00S 25°05' E 091°59'1 0.8 1026.2 21.2
2017-Jun-23 00:00S 25°04' E 092°00'1 0.5 1026.1 21.2
2017-Jun-22 23:00S 25°04' E 092°01'1 0.5 1025.2 21.2
2017-Jun-22 21:00S 25°04' E 091°59'1 0.6 1025.8 21.2
2017-Jun-22 20:00S 25°04' E 091°59'1 0.1 1026.0 21.2
2017-Jun-22 15:00S 25°03' E 091°59'0 0.0 1027.8 21.3
2017-Jun-22 14:00S 25°03' E 091°59'1 0.8 1028.4 21.3
2017-Jun-22 13:00S 25°02' E 091°59'1 0.6 1028.3 21.3
2017-Jun-22 12:00S 25°03' E 091°59'1 0.3 1027.8 21.3
2017-Jun-22 10:00S 25°02' E 091°59'1 1.2 1027.4 21.3
2017-Jun-22 09:00S 25°02' E 091°58'2 0.2 1027.4 21.3
2017-Jun-22 01:00S 25°00' E 091°57'2 1.1 1028.1 21.3
2017-Jun-21 23:00S 24°59' E 091°59'1 0.4 1025.6 21.3
2017-Jun-21 21:00S 24°59' E 091°59'0 0.0 1025.9 21.3
2017-Jun-21 20:00S 24°59' E 091°59'1 0.2 1025.9 21.3
2017-Jun-21 15:00S 24°59' E 092°00'0 0.0 1027.4 21.4
2017-Jun-21 14:00S 24°59' E 092°00'1 0.5 1027.0 21.4
2017-Jun-21 13:00S 24°59' E 091°59'1 1.2 1026.7 21.4
2017-Jun-21 12:00S 24°58' E 092°01'0 0.0 1026.3 21.4
2017-Jun-21 11:00S 24°58' E 092°01'0 0.0 1025.7 21.4
2017-Jun-21 10:00S 24°58' E 092°01'1 0.6 1025.6 21.4
2017-Jun-21 09:00S 24°58' E 092°01'2 0.4 1025.4 21.4
2017-Jun-21 04:00S 24°56' E 092°02'0 0.0 1026.7 21.4
2017-Jun-21 03:00S 24°56' E 092°02'2 0.8 1026.5 21.3
2017-Jun-21 01:00S 24°56' E 092°04'0 0.0 1025.7 21.3
2017-Jun-21 00:00S 24°56' E 092°04'1 1.1 1024.9 21.3
2017-Jun-20 23:00S 24°56' E 092°05'0 0.0 1024.4 21.3
2017-Jun-20 22:00S 24°56' E 092°05'1 0.5 1024.3 21.3
2017-Jun-20 21:00S 24°56' E 092°05'0 0.0 1024.5 21.3
2017-Jun-20 20:00S 24°56' E 092°05'1 0.1 1024.5 21.3
2017-Jun-20 16:00S 24°56' E 092°06'1 0.6 1025.2 21.3
2017-Jun-20 14:00S 24°56' E 092°07'0 0.0
2017-Jun-20 13:00S 24°56' E 092°07'1 1.2 1024.8 21.3
2017-Jun-20 12:00S 24°58' E 092°07'1 0.3 1024.2 21.3
2017-Jun-20 10:00S 24°57' E 092°07'1 0.8 1023.2 21.4
2017-Jun-20 09:00S 24°58' E 092°08'0 0.0 1023.0 21.4
2017-Jun-20 08:00S 24°58' E 092°08'1 0.1 1022.7 21.4
2017-Jun-20 03:00S 24°58' E 092°08'0 0.0 1024.6 21.3
2017-Jun-20 02:00S 24°58' E 092°08'1 0.5 1024.0 21.3
2017-Jun-20 01:00S 24°58' E 092°09'0 0.0 1023.6 21.3
2017-Jun-20 00:00S 24°58' E 092°09'1 1.2 1022.9 21.3
2017-Jun-19 23:00S 24°58' E 092°10'1 0.6 1022.4 21.3
2017-Jun-19 22:00S 24°58' E 092°10'1 0.8 1022.5 21.3
2017-Jun-19 21:00S 24°58' E 092°11'1 0.2 1022.5 21.3
2017-Jun-19 16:00S 24°58' E 092°11'0 0.0 1023.2 21.3
2017-Jun-19 15:00S 24°58' E 092°11'1 1.2 1023.6 21.3
2017-Jun-19 14:00S 24°57' E 092°13'1 0.3 1023.4 21.3
2017-Jun-19 12:00S 24°56' E 092°13'1 0.6 1022.5 21.3
2017-Jun-19 10:00S 24°57' E 092°14'0 0.0 1021.8 21.4
2017-Jun-19 09:00S 24°57' E 092°14'2 0.2 1021.5 21.4
2017-Jun-19 02:00S 24°56' E 092°16'1 0.8 1022.9 21.4
2017-Jun-19 01:00S 24°57' E 092°15'1 1.2 1022.3 21.4
2017-Jun-19 00:00S 24°56' E 092°15'0 0.0 1021.6 21.4
2017-Jun-18 23:00S 24°56' E 092°15'0 0.0 1021.0 21.4
2017-Jun-18 22:00S 24°56' E 092°15'1 0.3 1020.7 21.5
2017-Jun-18 18:00S 24°55' E 092°16'1 0.3 1021.6 21.6
2017-Jun-18 16:00S 24°54' E 092°16'1 0.5 1022.0 21.6
2017-Jun-18 15:00S 24°54' E 092°16'1 0.2 1021.8 21.6
2017-Jun-18 12:00S 24°53' E 092°16'1 0.5 1020.7 21.6
2017-Jun-18 11:00S 24°53' E 092°17'0 0.0 1020.3 21.6
2017-Jun-18 10:00S 24°53' E 092°17'1 0.5 1020.0 21.6
2017-Jun-18 09:00S 24°53' E 092°16'0 0.0 1019.9 21.6
2017-Jun-18 07:00S 24°53' E 092°16'1 0.3 1020.0 21.6
2017-Jun-18 03:00S 24°52' E 092°16'0 0.0 1021.6 21.6
2017-Jun-18 02:00S 24°52' E 092°16'0 0.0 1021.6 21.6
2017-Jun-18 00:00S 24°52' E 092°16'0 0.0 1020.7 21.6
2017-Jun-17 23:00S 24°52' E 092°16'0 0.0 1020.4 21.6
2017-Jun-17 21:00S 24°52' E 092°16'1 0.3 1020.4 21.6
2017-Jun-17 19:00S 24°52' E 092°16'1 0.6 1021.3 21.6
2017-Jun-17 18:00S 24°52' E 092°16'1 0.4 1021.6 21.6
2017-Jun-17 16:00S 24°52' E 092°17'1 0.6 1022.2 21.6
2017-Jun-17 15:00S 24°52' E 092°17'0 0.0 1022.1 21.6
2017-Jun-17 14:00S 24°52' E 092°17'0 0.0 1022.0 21.6
2017-Jun-17 13:00S 24°52' E 092°17'0 0.0 1021.8 21.6
2017-Jun-17 12:00S 24°52' E 092°17'0 0.0 1021.2 21.7
2017-Jun-17 11:00S 24°52' E 092°17'1 1.2 1020.9 21.7
2017-Jun-17 10:00S 24°53' E 092°18'1 1.2 1020.7 21.7
2017-Jun-17 09:00S 24°52' E 092°17'0 0.0 1020.7 21.7
2017-Jun-17 08:00S 24°52' E 092°17'0 0.0 1021.0 21.7
2017-Jun-17 07:00S 24°52' E 092°17'2 0.6 1021.5 21.7
2017-Jun-17 04:00S 24°52' E 092°15'1 0.8 1023.6 21.6
2017-Jun-17 03:00S 24°51' E 092°16'1 0.3 1023.4 21.6
2017-Jun-17 01:00S 24°51' E 092°15'1 0.8 1022.3 21.6
2017-Jun-17 00:00S 24°50' E 092°16'   1022.3 21.6

Dump ship's entire track history